createdAt,value
2023-04-02T00:01:55.658Z,8.11
2023-04-02T00:04:30.152Z,8.11
2023-04-02T00:07:30.864Z,8.09
2023-04-02T00:10:04.196Z,8.11
2023-04-02T00:12:33.160Z,8.12
2023-04-02T00:15:04.573Z,8.09
2023-04-02T00:17:35.234Z,8.07
2023-04-02T00:20:09.196Z,8.06
2023-04-02T00:22:47.464Z,8.04
2023-04-02T00:25:18.715Z,8.01
2023-04-02T00:27:49.733Z,8.02
2023-04-02T00:30:19.773Z,8.03
2023-04-02T00:32:50.697Z,8.02
2023-04-02T00:35:28.458Z,8.05
2023-04-02T00:38:01.004Z,8.03
2023-04-02T00:40:32.874Z,8.02
2023-04-02T00:43:07.341Z,8.01
2023-04-02T00:45:43.247Z,7.98
2023-04-02T00:48:24.723Z,8.01
2023-04-02T00:50:56.176Z,8.01
2023-04-02T00:53:32.726Z,7.96
2023-04-02T00:56:13.880Z,7.96
2023-04-02T00:58:53.745Z,7.96
2023-04-02T01:01:37.238Z,7.94
2023-04-02T01:04:06.523Z,7.97
2023-04-02T01:06:39.686Z,7.95
2023-04-02T01:09:27.574Z,7.95
2023-04-02T01:12:32.094Z,7.95
2023-04-02T01:15:13.213Z,7.97
2023-04-02T01:18:02.747Z,8.04
2023-04-02T01:20:59.789Z,8.05
2023-04-02T01:23:37.182Z,8.01
2023-04-02T01:26:16.794Z,8.01
2023-04-02T01:29:03.920Z,7.97
2023-04-02T01:31:34.523Z,7.96
2023-04-02T01:34:07.117Z,7.95
2023-04-02T01:36:44.781Z,7.97
2023-04-02T01:39:23.202Z,7.95
2023-04-02T01:42:00.215Z,7.95
2023-04-02T01:44:37.321Z,7.99
2023-04-02T01:47:12.424Z,7.96
2023-04-02T01:49:43.473Z,7.95
2023-04-02T01:52:17.586Z,7.90
2023-04-02T01:54:47.312Z,7.91
2023-04-02T01:57:16.872Z,7.88
2023-04-02T01:59:47.333Z,7.88
2023-04-02T02:02:16.482Z,7.88
2023-04-02T02:04:45.358Z,7.89
2023-04-02T02:07:17.606Z,7.87
2023-04-02T02:09:51.007Z,7.86
2023-04-02T02:12:19.868Z,7.84
2023-04-02T02:14:52.085Z,7.88
2023-04-02T02:17:29.590Z,7.88
2023-04-02T02:20:01.515Z,7.85
2023-04-02T02:22:32.800Z,7.85
2023-04-02T02:25:05.526Z,7.82
2023-04-02T02:28:06.502Z,7.84
2023-04-02T02:30:44.325Z,7.86
2023-04-02T02:33:20.801Z,7.90
2023-04-02T02:35:56.048Z,7.85
2023-04-02T02:38:57.100Z,7.83
2023-04-02T02:41:38.997Z,7.83
2023-04-02T02:44:18.370Z,7.85
2023-04-02T02:46:53.150Z,7.83
2023-04-02T02:49:28.393Z,7.83
2023-04-02T02:52:02.031Z,7.83
2023-04-02T02:54:39.438Z,7.82
2023-04-02T02:57:14.941Z,7.83
2023-04-02T02:59:46.173Z,7.84
2023-04-02T03:02:17.921Z,7.85
2023-04-02T03:04:49.949Z,7.84
2023-04-02T03:07:22.068Z,7.83
2023-04-02T03:09:55.721Z,7.90
2023-04-02T03:12:37.582Z,7.87
2023-04-02T03:15:18.414Z,7.86
2023-04-02T03:17:55.436Z,7.85
2023-04-02T03:20:31.946Z,7.80
2023-04-02T03:23:07.895Z,7.88
2023-04-02T03:25:43.510Z,7.90
2023-04-02T03:28:18.315Z,7.88
2023-04-02T03:30:52.441Z,7.87
2023-04-02T03:33:30.422Z,7.90
2023-04-02T03:36:04.736Z,7.89
2023-04-02T03:38:43.659Z,7.85
2023-04-02T03:41:19.050Z,7.85
2023-04-02T03:43:51.081Z,7.85
2023-04-02T03:46:27.150Z,7.86
2023-04-02T03:49:01.491Z,7.86
2023-04-02T03:51:36.140Z,7.85
2023-04-02T03:54:07.890Z,7.84
2023-04-02T03:56:40.969Z,7.83
2023-04-02T03:59:21.183Z,7.83
2023-04-02T04:01:57.061Z,7.85
2023-04-02T04:04:29.876Z,7.85
2023-04-02T04:07:01.476Z,7.85
2023-04-02T04:09:33.710Z,7.83
2023-04-02T04:12:12.133Z,7.83
2023-04-02T04:14:46.023Z,7.82
2023-04-02T04:17:24.947Z,7.79
2023-04-02T04:20:08.340Z,7.81
2023-04-02T04:22:37.852Z,7.83
2023-04-02T04:25:26.646Z,7.79
2023-04-02T04:28:08.161Z,7.75
2023-04-02T04:30:50.970Z,7.77
2023-04-02T04:33:24.222Z,7.75
2023-04-02T04:36:00.999Z,7.75
2023-04-02T04:38:39.574Z,7.74
2023-04-02T04:41:15.944Z,7.76
2023-04-02T04:43:53.567Z,7.75
2023-04-02T04:46:29.621Z,7.77
2023-04-02T04:49:04.206Z,7.78
2023-04-02T04:51:40.408Z,7.78
2023-04-02T04:54:14.583Z,7.78
2023-04-02T04:56:48.665Z,7.79
2023-04-02T04:59:24.284Z,7.79
2023-04-02T05:02:03.973Z,7.79
2023-04-02T05:04:36.706Z,7.77
2023-04-02T05:07:11.996Z,7.79
2023-04-02T05:09:53.175Z,7.81
2023-04-02T05:12:35.283Z,7.78
2023-04-02T05:15:17.164Z,7.81
2023-04-02T05:17:49.505Z,7.88
2023-04-02T05:20:25.906Z,7.79
2023-04-02T05:23:03.875Z,7.82
2023-04-02T05:25:34.212Z,7.83
2023-04-02T05:28:14.434Z,7.85
2023-04-02T05:30:52.642Z,7.86
2023-04-02T05:33:28.928Z,7.88
2023-04-02T05:36:03.986Z,7.90
2023-04-02T05:38:38.977Z,7.93
2023-04-02T05:41:18.512Z,7.93
2023-04-02T05:43:49.792Z,7.97
2023-04-02T05:46:23.716Z,7.97
2023-04-02T05:48:58.002Z,7.95
2023-04-02T05:51:36.320Z,7.98
2023-04-02T05:54:18.437Z,8.05
2023-04-02T05:56:50.743Z,8.06
2023-04-02T05:59:22.762Z,8.09
2023-04-02T06:01:58.980Z,8.07
2023-04-02T06:04:38.934Z,8.09
2023-04-02T06:07:12.713Z,8.21
2023-04-02T06:09:54.828Z,8.26
2023-04-02T06:12:31.193Z,8.17
2023-04-02T06:15:01.558Z,8.19
2023-04-02T06:17:44.265Z,8.27
2023-04-02T06:20:17.644Z,8.29
2023-04-02T06:22:52.381Z,8.28
2023-04-02T06:25:28.632Z,8.37
2023-04-02T06:28:01.650Z,8.40
2023-04-02T06:30:34.250Z,8.42
2023-04-02T06:33:04.098Z,8.48
2023-04-02T06:35:38.820Z,8.55
2023-04-02T06:38:18.469Z,8.58
2023-04-02T06:40:51.444Z,8.51
2023-04-02T06:43:40.459Z,8.64
2023-04-02T06:46:39.909Z,8.61
2023-04-02T06:49:20.879Z,8.60
2023-04-02T06:51:54.281Z,8.61
2023-04-02T06:54:23.206Z,8.60
2023-04-02T06:56:58.202Z,8.65
2023-04-02T06:59:32.356Z,8.63
2023-04-02T07:02:06.720Z,8.56
2023-04-02T07:04:35.778Z,8.64
2023-04-02T07:07:04.685Z,8.66
2023-04-02T07:09:38.489Z,8.63
2023-04-02T07:12:14.128Z,8.74
2023-04-02T07:14:44.098Z,8.78
2023-04-02T07:17:17.364Z,8.79
2023-04-02T07:19:49.729Z,8.88
2023-04-02T07:22:22.174Z,8.90
2023-04-02T07:24:55.495Z,8.86
2023-04-02T07:27:25.059Z,8.88
2023-04-02T07:29:53.632Z,8.95
2023-04-02T07:32:25.603Z,8.82
2023-04-02T07:34:54.657Z,8.78
2023-04-02T07:37:24.381Z,8.92
2023-04-02T07:39:52.599Z,8.96
2023-04-02T07:42:22.348Z,8.96
2023-04-02T07:44:53.535Z,8.91
2023-04-02T07:47:21.746Z,9.01
2023-04-02T07:49:54.702Z,9.02
2023-04-02T07:52:23.362Z,8.81
2023-04-02T07:54:51.481Z,8.90
2023-04-02T07:57:21.437Z,9.04
2023-04-02T07:59:50.785Z,9.00
2023-04-02T08:02:24.415Z,9.04
2023-04-02T08:04:52.932Z,9.15
2023-04-02T08:07:21.934Z,9.23
2023-04-02T08:09:50.422Z,9.06
2023-04-02T08:12:18.800Z,9.22
2023-04-02T08:14:47.061Z,9.30
2023-04-02T08:17:17.505Z,9.24
2023-04-02T08:19:54.613Z,9.34
2023-04-02T08:22:23.961Z,9.39
2023-04-02T08:24:53.803Z,9.57
2023-04-02T08:27:22.549Z,9.58
2023-04-02T08:29:52.296Z,9.66
2023-04-02T08:32:22.156Z,9.74
2023-04-02T08:34:53.564Z,9.95
2023-04-02T08:37:21.985Z,10.43
2023-04-02T08:39:50.586Z,10.93
2023-04-02T08:42:28.082Z,11.26
2023-04-02T08:45:23.471Z,11.62
2023-04-02T08:47:57.348Z,12.00
2023-04-02T08:50:33.561Z,12.41
2023-04-02T08:53:05.875Z,12.65
2023-04-02T08:55:39.757Z,13.00
2023-04-02T08:58:22.197Z,12.75
2023-04-02T09:00:55.751Z,12.15
2023-04-02T09:03:30.349Z,12.20
2023-04-02T09:06:03.653Z,12.20
2023-04-02T09:08:35.872Z,12.25
2023-04-02T09:11:09.175Z,12.05
2023-04-02T09:13:44.395Z,11.59
2023-04-02T09:16:14.624Z,11.88
2023-04-02T09:18:44.460Z,11.90
2023-04-02T09:21:32.137Z,11.91
2023-04-02T09:24:00.593Z,11.65
2023-04-02T09:26:32.023Z,11.39
2023-04-02T09:29:10.975Z,10.61
2023-04-02T09:31:47.589Z,10.17
2023-04-02T09:34:31.025Z,9.73
2023-04-02T09:37:09.901Z,9.56
2023-04-02T09:39:38.545Z,9.53
2023-04-02T09:42:09.329Z,9.02
2023-04-02T09:44:38.100Z,8.90
2023-04-02T09:47:24.143Z,8.91
2023-04-02T09:49:53.192Z,8.83
2023-04-02T09:52:29.071Z,8.73
2023-04-02T09:55:19.297Z,8.74
2023-04-02T09:57:51.077Z,8.71
2023-04-02T10:03:04.859Z,8.75
2023-04-02T10:08:21.077Z,8.85
2023-04-02T10:10:52.507Z,8.81
2023-04-02T10:13:27.174Z,8.95
2023-04-02T10:16:01.130Z,9.04
2023-04-02T10:18:39.706Z,9.14
2023-04-02T10:21:11.479Z,9.06
2023-04-02T10:23:41.702Z,9.04
2023-04-02T10:26:46.847Z,9.17
2023-04-02T10:29:35.741Z,9.01
2023-04-02T10:32:16.265Z,9.11
2023-04-02T10:34:50.843Z,9.23
2023-04-02T10:37:55.212Z,9.17
2023-04-02T10:40:29.697Z,9.43
2023-04-02T10:43:31.766Z,9.57
2023-04-02T10:46:03.969Z,9.51
2023-04-02T10:48:40.355Z,9.62
2023-04-02T10:51:18.787Z,9.62
2023-04-02T10:53:58.754Z,9.59
2023-04-02T10:56:37.753Z,9.71
2023-04-02T10:59:19.562Z,9.68
2023-04-02T11:01:50.114Z,9.61
2023-04-02T11:04:23.755Z,9.61
2023-04-02T11:07:07.019Z,9.65
2023-04-02T11:09:42.859Z,9.92
2023-04-02T11:12:21.813Z,10.21
2023-04-02T11:14:52.477Z,10.01
2023-04-02T11:17:21.825Z,9.83
2023-04-02T11:19:50.266Z,9.88
2023-04-02T11:22:23.159Z,9.93
2023-04-02T11:24:53.431Z,9.85
2023-04-02T11:27:29.161Z,9.88
2023-04-02T11:30:06.286Z,9.89
2023-04-02T11:32:45.360Z,9.83
2023-04-02T11:35:38.790Z,9.68
2023-04-02T11:38:51.726Z,9.72
2023-04-02T11:42:04.133Z,9.73
2023-04-02T11:44:34.120Z,9.83
2023-04-02T11:47:18.201Z,9.99
2023-04-02T11:50:28.583Z,10.09
2023-04-02T11:53:03.252Z,10.06
2023-04-02T11:55:33.292Z,10.37
2023-04-02T11:58:26.647Z,10.34
2023-04-02T12:01:23.954Z,10.25
2023-04-02T12:04:17.805Z,10.11
2023-04-02T12:06:59.899Z,9.96
2023-04-02T12:09:30.041Z,10.23
2023-04-02T12:12:01.291Z,9.99
2023-04-02T12:14:42.708Z,9.83
2023-04-02T12:17:25.047Z,9.77
2023-04-02T12:19:59.810Z,9.62
2023-04-02T12:22:30.812Z,9.72
2023-04-02T12:25:01.999Z,9.54
2023-04-02T12:27:31.796Z,9.68
2023-04-02T12:30:14.730Z,9.79
2023-04-02T12:32:44.550Z,9.67
2023-04-02T12:35:28.203Z,9.71
2023-04-02T12:37:57.136Z,9.81
2023-04-02T12:40:27.292Z,9.77
2023-04-02T12:42:55.571Z,9.69
2023-04-02T12:45:29.568Z,9.96
2023-04-02T12:48:04.046Z,10.16
2023-04-02T12:50:35.333Z,10.01
2023-04-02T12:53:04.255Z,10.18
2023-04-02T12:55:33.524Z,10.13
2023-04-02T12:58:01.904Z,9.73
2023-04-02T13:00:37.081Z,9.66
2023-04-02T13:03:20.415Z,9.92
2023-04-02T13:05:54.596Z,9.88
2023-04-02T13:08:27.240Z,9.72
2023-04-02T13:10:58.930Z,9.45
2023-04-02T13:13:31.471Z,9.32
2023-04-02T13:16:24.252Z,9.14
2023-04-02T13:19:10.895Z,9.02
2023-04-02T13:21:39.315Z,8.98
2023-04-02T13:24:18.447Z,8.95
2023-04-02T13:26:48.202Z,8.80
2023-04-02T13:29:21.647Z,8.70
2023-04-02T13:31:50.742Z,8.47
2023-04-02T13:34:21.799Z,8.41
2023-04-02T13:36:50.645Z,8.23
2023-04-02T13:39:20.792Z,8.29
2023-04-02T13:41:52.548Z,8.29
2023-04-02T13:44:25.481Z,8.17
2023-04-02T13:46:58.013Z,8.23
2023-04-02T13:49:28.910Z,8.18
2023-04-02T13:52:03.252Z,8.04
2023-04-02T13:54:35.028Z,7.89
2023-04-02T13:57:06.281Z,7.94
2023-04-02T13:59:35.043Z,7.99
2023-04-02T14:02:07.657Z,8.05
2023-04-02T14:04:41.617Z,8.10
2023-04-02T14:07:34.405Z,8.05
2023-04-02T14:10:14.938Z,7.96
2023-04-02T14:12:57.286Z,7.93
2023-04-02T14:15:37.361Z,7.79
2023-04-02T14:18:31.977Z,7.75
2023-04-02T14:21:12.449Z,7.67
2023-04-02T14:23:55.988Z,7.61
2023-04-02T14:26:33.289Z,7.70
2023-04-02T14:29:07.904Z,7.62
2023-04-02T14:31:39.967Z,7.63
2023-04-02T14:34:19.225Z,7.46
2023-04-02T14:36:59.740Z,7.50
2023-04-02T14:39:40.556Z,7.42
2023-04-02T14:42:15.696Z,7.38
2023-04-02T14:44:51.522Z,7.35
2023-04-02T14:47:25.322Z,7.41
2023-04-02T14:49:58.420Z,7.51
2023-04-02T14:52:32.758Z,7.43
2023-04-02T14:55:04.970Z,7.46
2023-04-02T14:57:38.538Z,7.41
2023-04-02T15:00:24.475Z,7.41
2023-04-02T15:02:58.324Z,7.36
2023-04-02T15:05:34.376Z,7.32
2023-04-02T15:08:08.074Z,7.08
2023-04-02T15:10:45.741Z,7.11
2023-04-02T15:13:21.400Z,7.08
2023-04-02T15:15:57.667Z,7.23
2023-04-02T15:18:26.899Z,7.09
2023-04-02T15:21:04.023Z,7.06
2023-04-02T15:23:56.042Z,6.79
2023-04-02T15:26:30.920Z,6.79
2023-04-02T15:29:25.796Z,6.65
2023-04-02T15:32:08.327Z,6.64
2023-04-02T15:34:42.081Z,6.45
2023-04-02T15:37:24.549Z,6.51
2023-04-02T15:40:08.990Z,6.72
2023-04-02T15:42:40.706Z,6.54
2023-04-02T15:45:44.637Z,6.51
2023-04-02T15:48:41.778Z,6.63
2023-04-02T15:51:22.922Z,6.54
2023-04-02T15:54:01.095Z,6.56
2023-04-02T15:56:41.896Z,6.57
2023-04-02T15:59:36.036Z,6.53
2023-04-02T16:02:25.061Z,6.52
2023-04-02T16:05:04.821Z,6.42
2023-04-02T16:08:11.072Z,6.35
2023-04-02T16:10:42.881Z,6.21
2023-04-02T16:13:27.083Z,6.22
2023-04-02T16:16:02.842Z,6.11
2023-04-02T16:18:41.863Z,6.15
2023-04-02T16:21:13.400Z,6.12
2023-04-02T16:23:42.567Z,6.23
2023-04-02T16:26:39.901Z,6.27
2023-04-02T16:29:27.570Z,6.18
2023-04-02T16:32:03.367Z,6.12
2023-04-02T16:34:43.558Z,6.07
2023-04-02T16:37:23.505Z,5.98
2023-04-02T16:39:58.125Z,6.03
2023-04-02T16:42:36.354Z,5.94
2023-04-02T16:45:24.733Z,5.96
2023-04-02T16:48:04.546Z,5.98
2023-04-02T16:50:41.487Z,5.99
2023-04-02T16:53:25.732Z,5.97
2023-04-02T16:56:09.340Z,5.94
2023-04-02T16:58:51.271Z,5.92
2023-04-02T17:01:28.958Z,5.88
2023-04-02T17:04:09.267Z,5.97
2023-04-02T17:06:43.245Z,6.06
2023-04-02T17:09:19.610Z,5.86
2023-04-02T17:11:51.402Z,5.88
2023-04-02T17:14:28.456Z,5.82
2023-04-02T17:17:03.064Z,5.72
2023-04-02T17:19:32.952Z,5.64
2023-04-02T17:22:04.782Z,5.69
2023-04-02T17:24:42.080Z,5.71
2023-04-02T17:27:22.058Z,5.66
2023-04-02T17:29:53.991Z,5.64
2023-04-02T17:32:29.630Z,5.51
2023-04-02T17:35:17.196Z,5.43
2023-04-02T17:37:52.401Z,5.49
2023-04-02T17:40:30.557Z,5.46
2023-04-02T17:43:06.851Z,5.45
2023-04-02T17:45:42.668Z,5.43
2023-04-02T17:48:22.671Z,5.45
2023-04-02T17:51:00.417Z,5.42
2023-04-02T17:53:47.510Z,5.30
2023-04-02T17:56:27.992Z,5.22
2023-04-02T17:59:30.529Z,5.29
2023-04-02T18:02:07.659Z,5.39
2023-04-02T18:04:50.648Z,5.29
2023-04-02T18:07:31.923Z,5.28
2023-04-02T18:10:08.702Z,5.29
2023-04-02T18:12:55.279Z,5.23
2023-04-02T18:15:53.733Z,5.21
2023-04-02T18:18:49.543Z,5.25
2023-04-02T18:21:26.338Z,5.17
2023-04-02T18:24:08.286Z,5.13
2023-04-02T18:26:44.870Z,5.06
2023-04-02T18:29:26.110Z,5.12
2023-04-02T18:32:05.665Z,5.13
2023-04-02T18:34:46.337Z,5.18
2023-04-02T18:37:37.955Z,5.14
2023-04-02T18:40:22.053Z,5.20
2023-04-02T18:43:03.110Z,5.21
2023-04-02T18:45:39.157Z,5.06
2023-04-02T18:48:19.795Z,5.09
2023-04-02T18:50:49.701Z,5.10
2023-04-02T18:53:20.308Z,5.17
2023-04-02T18:55:55.403Z,5.11
2023-04-02T18:58:28.390Z,5.01
2023-04-02T19:01:00.481Z,4.96
2023-04-02T19:03:32.423Z,5.03
2023-04-02T19:06:03.133Z,5.06
2023-04-02T19:08:39.212Z,5.10
2023-04-02T19:11:12.470Z,5.13
2023-04-02T19:13:42.100Z,4.99
2023-04-02T19:16:30.000Z,5.04
2023-04-02T19:19:10.302Z,5.03
2023-04-02T19:21:47.456Z,4.87
2023-04-02T19:24:30.616Z,5.04
2023-04-02T19:27:06.913Z,4.92
2023-04-02T19:29:45.359Z,4.84
2023-04-02T19:32:27.249Z,4.84
2023-04-02T19:35:01.851Z,4.90
2023-04-02T19:37:38.120Z,4.85
2023-04-02T19:40:21.019Z,4.71
2023-04-02T19:42:51.048Z,5.01
2023-04-02T19:45:34.815Z,4.83
2023-04-02T19:48:12.402Z,4.86
2023-04-02T19:50:41.628Z,4.81
2023-04-02T19:53:10.666Z,4.79
2023-04-02T19:55:42.458Z,4.88
2023-04-02T19:58:20.119Z,4.71
2023-04-02T20:00:49.774Z,4.59
2023-04-02T20:03:18.450Z,4.48
2023-04-02T20:05:47.328Z,4.49
2023-04-02T20:08:16.099Z,4.50
2023-04-02T20:10:46.714Z,4.50
2023-04-02T20:13:15.581Z,4.48
2023-04-02T20:15:44.348Z,4.38
2023-04-02T20:18:12.521Z,4.52
2023-04-02T20:20:50.418Z,4.44
2023-04-02T20:23:18.842Z,4.37
2023-04-02T20:25:53.015Z,4.48
2023-04-02T20:28:21.611Z,4.47
2023-04-02T20:30:50.934Z,4.47
2023-04-02T20:33:20.085Z,4.47
2023-04-02T20:35:50.710Z,4.44
2023-04-02T20:38:19.908Z,4.41
2023-04-02T20:40:52.895Z,4.41
2023-04-02T20:43:21.502Z,4.48
2023-04-02T20:46:04.278Z,4.42
2023-04-02T20:48:33.939Z,4.45
2023-04-02T20:51:04.499Z,4.43
2023-04-02T20:53:34.525Z,4.53
2023-04-02T20:56:06.677Z,4.49
2023-04-02T20:58:36.544Z,4.45
2023-04-02T21:01:10.631Z,4.63
2023-04-02T21:03:41.984Z,4.50
2023-04-02T21:06:14.387Z,4.60
2023-04-02T21:08:44.069Z,4.49
2023-04-02T21:11:14.544Z,4.43
2023-04-02T21:13:44.223Z,4.40
2023-04-02T21:16:14.156Z,4.43
2023-04-02T21:18:42.414Z,4.42
2023-04-02T21:21:13.522Z,4.40
2023-04-02T21:23:43.607Z,4.34
2023-04-02T21:26:14.735Z,4.41
2023-04-02T21:28:44.850Z,4.40
2023-04-02T21:31:15.822Z,4.51
2023-04-02T21:33:46.348Z,4.60
2023-04-02T21:36:17.784Z,4.57
2023-04-02T21:38:49.356Z,4.47
2023-04-02T21:41:22.190Z,4.58
2023-04-02T21:43:51.456Z,4.55
2023-04-02T21:46:22.381Z,4.41
2023-04-02T21:48:52.127Z,4.48
2023-04-02T21:51:23.027Z,4.44
2023-04-02T21:53:54.221Z,4.36
2023-04-02T21:56:26.299Z,4.37
2023-04-02T21:58:58.524Z,4.35
2023-04-02T22:01:29.991Z,4.39
2023-04-02T22:04:01.052Z,4.47
2023-04-02T22:06:32.558Z,4.43
2023-04-02T22:09:02.978Z,4.42
2023-04-02T22:11:36.459Z,4.38
2023-04-02T22:14:05.819Z,4.39
2023-04-02T22:16:36.494Z,4.37
2023-04-02T22:19:08.895Z,4.39
2023-04-02T22:21:38.569Z,4.41
2023-04-02T22:24:10.401Z,4.39
2023-04-02T22:26:41.037Z,4.31
2023-04-02T22:29:09.596Z,4.27
2023-04-02T22:31:38.998Z,4.29
2023-04-02T22:34:11.480Z,4.28
2023-04-02T22:36:39.683Z,4.21
2023-04-02T22:39:12.377Z,4.14
2023-04-02T22:41:44.076Z,4.21
2023-04-02T22:44:15.865Z,4.06
2023-04-02T22:46:44.455Z,3.98
2023-04-02T22:49:19.129Z,4.00
2023-04-02T22:51:50.078Z,3.95
2023-04-02T22:54:19.209Z,3.90
2023-04-02T22:56:48.861Z,3.85
2023-04-02T22:59:17.005Z,3.65
2023-04-02T23:01:45.936Z,3.61
2023-04-02T23:04:14.433Z,3.60
2023-04-02T23:06:43.198Z,3.50
2023-04-02T23:09:12.068Z,3.37
2023-04-02T23:11:40.628Z,3.24
2023-04-02T23:14:10.534Z,3.08
2023-04-02T23:16:39.204Z,2.86
2023-04-02T23:19:07.349Z,2.75
2023-04-02T23:21:36.039Z,2.62
2023-04-02T23:24:04.418Z,2.47
2023-04-02T23:26:32.978Z,2.40
2023-04-02T23:29:03.327Z,2.29
2023-04-02T23:31:35.535Z,2.39
2023-04-02T23:34:04.363Z,2.46
2023-04-02T23:36:34.337Z,2.41
2023-04-02T23:39:09.573Z,2.45
2023-04-02T23:41:40.086Z,2.50
2023-04-02T23:44:08.683Z,2.38
2023-04-02T23:46:38.666Z,2.25
2023-04-02T23:49:08.272Z,2.09
2023-04-02T23:51:37.931Z,1.92
2023-04-02T23:54:07.750Z,1.83
2023-04-02T23:56:36.114Z,1.72
2023-04-02T23:59:05.063Z,1.71
